Willard, Colorado
Current Conditions -  °F | °C
As of 12:50 PM on Monday 22 Dec 2014 (Local Time) from KSTK Reporting Station
Clear Clear  
Wind Chill: 32°   Ceiling: Unl
Heat Index: 41°   Visibility: 10mi
Dew Point: 30°   Wind: 18mph
Humidity: 65%   Direction: 330°NNW
Pressure: 29.64"   Gusts: NA
Location:  40.5426°N, 103.449°W
Report Text: KSTK 221950Z AUTO 33016KT 10SM CLR 05/M01 A2964 RMK AO2
Loading
Personal Weather Stations






























Interactive Weather Map New forecast layout! Learn more

10-Day Weather Forecast

Advertisements
Track Severe Weather on mobile